sensor_id;sensor_type;location;lat;lon;timestamp;temperature;humidity
14908;DHT22;7545;52.092;7.006;2023-02-28T00:00:18;1.70;99.90
14908;DHT22;7545;52.092;7.006;2023-02-28T00:02:45;1.80;99.90
14908;DHT22;7545;52.092;7.006;2023-02-28T00:05:13;1.70;99.90
14908;DHT22;7545;52.092;7.006;2023-02-28T00:07:38;1.80;99.90
14908;DHT22;7545;52.092;7.006;2023-02-28T00:10:06;1.70;99.90
14908;DHT22;7545;52.092;7.006;2023-02-28T00:12:33;1.80;99.90
14908;DHT22;7545;52.092;7.006;2023-02-28T00:14:59;1.80;99.90
14908;DHT22;7545;52.092;7.006;2023-02-28T00:17:25;1.80;99.90
14908;DHT22;7545;52.092;7.006;2023-02-28T00:19:51;1.80;99.90
14908;DHT22;7545;52.092;7.006;2023-02-28T00:22:18;1.80;99.90
14908;DHT22;7545;52.092;7.006;2023-02-28T00:24:44;1.80;99.90
14908;DHT22;7545;52.092;7.006;2023-02-28T00:27:10;1.80;99.90
14908;DHT22;7545;52.092;7.006;2023-02-28T00:29:36;1.90;99.90
14908;DHT22;7545;52.092;7.006;2023-02-28T00:32:02;1.90;99.90
14908;DHT22;7545;52.092;7.006;2023-02-28T00:34:28;1.90;99.90
14908;DHT22;7545;52.092;7.006;2023-02-28T00:36:54;2.00;99.90
14908;DHT22;7545;52.092;7.006;2023-02-28T00:39:19;2.00;99.90
14908;DHT22;7545;52.092;7.006;2023-02-28T00:41:45;2.00;99.90
14908;DHT22;7545;52.092;7.006;2023-02-28T00:44:11;2.00;99.90
14908;DHT22;7545;52.092;7.006;2023-02-28T00:46:36;2.00;99.90
14908;DHT22;7545;52.092;7.006;2023-02-28T00:49:02;2.00;99.90
14908;DHT22;7545;52.092;7.006;2023-02-28T00:51:28;2.10;99.90
14908;DHT22;7545;52.092;7.006;2023-02-28T00:53:54;2.00;99.90
14908;DHT22;7545;52.092;7.006;2023-02-28T00:56:19;2.00;99.90
14908;DHT22;7545;52.092;7.006;2023-02-28T00:58:45;2.10;99.90
14908;DHT22;7545;52.092;7.006;2023-02-28T01:01:10;2.10;99.90
14908;DHT22;7545;52.092;7.006;2023-02-28T01:03:36;2.10;99.90
14908;DHT22;7545;52.092;7.006;2023-02-28T01:06:02;2.10;99.90
14908;DHT22;7545;52.092;7.006;2023-02-28T01:08:28;2.10;99.90
14908;DHT22;7545;52.092;7.006;2023-02-28T01:10:53;2.10;99.90
14908;DHT22;7545;52.092;7.006;2023-02-28T01:13:20;2.10;99.90
14908;DHT22;7545;52.092;7.006;2023-02-28T01:15:49;2.10;99.90
14908;DHT22;7545;52.092;7.006;2023-02-28T01:18:16;2.10;99.90
14908;DHT22;7545;52.092;7.006;2023-02-28T01:20:42;2.00;99.90
14908;DHT22;7545;52.092;7.006;2023-02-28T01:23:08;2.10;99.90
14908;DHT22;7545;52.092;7.006;2023-02-28T01:25:35;2.10;99.90
14908;DHT22;7545;52.092;7.006;2023-02-28T01:28:01;2.20;99.90
14908;DHT22;7545;52.092;7.006;2023-02-28T01:30:27;2.20;99.90
14908;DHT22;7545;52.092;7.006;2023-02-28T01:32:53;2.20;99.90
14908;DHT22;7545;52.092;7.006;2023-02-28T01:35:19;2.20;99.90
14908;DHT22;7545;52.092;7.006;2023-02-28T01:37:45;2.20;99.90
14908;DHT22;7545;52.092;7.006;2023-02-28T01:40:12;2.20;99.90
14908;DHT22;7545;52.092;7.006;2023-02-28T01:42:38;2.20;99.90
14908;DHT22;7545;52.092;7.006;2023-02-28T01:45:18;2.30;99.90
14908;DHT22;7545;52.092;7.006;2023-02-28T01:47:45;2.20;99.90
14908;DHT22;7545;52.092;7.006;2023-02-28T01:50:17;2.30;99.90
14908;DHT22;7545;52.092;7.006;2023-02-28T01:52:44;2.20;99.90
14908;DHT22;7545;52.092;7.006;2023-02-28T01:55:11;2.30;99.90
14908;DHT22;7545;52.092;7.006;2023-02-28T01:57:43;2.30;99.90
14908;DHT22;7545;52.092;7.006;2023-02-28T02:00:15;2.30;99.90
14908;DHT22;7545;52.092;7.006;2023-02-28T02:02:44;2.30;99.90
14908;DHT22;7545;52.092;7.006;2023-02-28T02:05:17;2.30;99.90
14908;DHT22;7545;52.092;7.006;2023-02-28T02:07:46;2.20;99.90
14908;DHT22;7545;52.092;7.006;2023-02-28T02:10:19;2.30;99.90
14908;DHT22;7545;52.092;7.006;2023-02-28T02:18:42;2.30;99.90
14908;DHT22;7545;52.092;7.006;2023-02-28T02:37:27;2.30;99.90
14908;DHT22;7545;52.092;7.006;2023-02-28T02:42:41;2.30;99.90
14908;DHT22;7545;52.092;7.006;2023-02-28T02:45:38;2.30;99.90
14908;DHT22;7545;52.092;7.006;2023-02-28T02:48:08;2.30;99.90
14908;DHT22;7545;52.092;7.006;2023-02-28T02:50:45;2.30;99.90
14908;DHT22;7545;52.092;7.006;2023-02-28T02:53:13;2.20;99.90
14908;DHT22;7545;52.092;7.006;2023-02-28T02:55:43;2.20;99.90
14908;DHT22;7545;52.092;7.006;2023-02-28T02:58:14;2.20;99.90
14908;DHT22;7545;52.092;7.006;2023-02-28T03:00:46;2.20;99.90
14908;DHT22;7545;52.092;7.006;2023-02-28T03:03:13;2.20;99.90
14908;DHT22;7545;52.092;7.006;2023-02-28T03:05:50;2.20;99.90
14908;DHT22;7545;52.092;7.006;2023-02-28T03:08:16;2.20;99.90
14908;DHT22;7545;52.092;7.006;2023-02-28T03:10:44;2.20;99.90
14908;DHT22;7545;52.092;7.006;2023-02-28T03:18:58;2.20;99.90
14908;DHT22;7545;52.092;7.006;2023-02-28T03:21:38;2.10;99.90
14908;DHT22;7545;52.092;7.006;2023-02-28T03:24:33;2.20;99.90
14908;DHT22;7545;52.092;7.006;2023-02-28T03:27:06;2.20;99.90
14908;DHT22;7545;52.092;7.006;2023-02-28T03:29:39;2.20;99.90
14908;DHT22;7545;52.092;7.006;2023-02-28T03:34:54;2.20;99.90
14908;DHT22;7545;52.092;7.006;2023-02-28T03:37:24;2.30;99.90
14908;DHT22;7545;52.092;7.006;2023-02-28T03:39:59;2.30;99.90
14908;DHT22;7545;52.092;7.006;2023-02-28T03:42:29;2.20;99.90
14908;DHT22;7545;52.092;7.006;2023-02-28T03:45:02;2.30;99.90
14908;DHT22;7545;52.092;7.006;2023-02-28T03:52:34;2.20;99.90
14908;DHT22;7545;52.092;7.006;2023-02-28T03:55:04;2.30;99.90
14908;DHT22;7545;52.092;7.006;2023-02-28T04:00:19;2.20;99.90
14908;DHT22;7545;52.092;7.006;2023-02-28T04:02:45;2.20;99.90
14908;DHT22;7545;52.092;7.006;2023-02-28T04:05:11;2.20;99.90
14908;DHT22;7545;52.092;7.006;2023-02-28T04:07:37;2.20;99.90
14908;DHT22;7545;52.092;7.006;2023-02-28T04:10:03;2.20;99.90
14908;DHT22;7545;52.092;7.006;2023-02-28T04:12:29;2.30;99.90
14908;DHT22;7545;52.092;7.006;2023-02-28T04:14:55;2.20;99.90
14908;DHT22;7545;52.092;7.006;2023-02-28T04:17:20;2.20;99.90
14908;DHT22;7545;52.092;7.006;2023-02-28T04:19:46;2.30;99.90
14908;DHT22;7545;52.092;7.006;2023-02-28T04:22:12;2.20;99.90
14908;DHT22;7545;52.092;7.006;2023-02-28T04:24:37;2.30;99.90
14908;DHT22;7545;52.092;7.006;2023-02-28T04:27:07;2.30;99.90
14908;DHT22;7545;52.092;7.006;2023-02-28T04:29:33;2.20;99.90
14908;DHT22;7545;52.092;7.006;2023-02-28T04:32:00;2.20;99.90
14908;DHT22;7545;52.092;7.006;2023-02-28T04:34:27;2.20;99.90
14908;DHT22;7545;52.092;7.006;2023-02-28T04:36:54;2.20;99.90
14908;DHT22;7545;52.092;7.006;2023-02-28T04:39:21;2.20;99.90
14908;DHT22;7545;52.092;7.006;2023-02-28T04:41:47;2.20;99.90
14908;DHT22;7545;52.092;7.006;2023-02-28T04:44:13;2.20;99.90
14908;DHT22;7545;52.092;7.006;2023-02-28T04:46:39;2.10;99.90
14908;DHT22;7545;52.092;7.006;2023-02-28T04:49:05;2.20;99.90
14908;DHT22;7545;52.092;7.006;2023-02-28T04:51:31;2.00;99.90
14908;DHT22;7545;52.092;7.006;2023-02-28T04:53:56;2.10;99.90
14908;DHT22;7545;52.092;7.006;2023-02-28T04:56:22;2.10;99.90
14908;DHT22;7545;52.092;7.006;2023-02-28T04:58:48;2.10;99.90
14908;DHT22;7545;52.092;7.006;2023-02-28T05:01:27;2.10;99.90
14908;DHT22;7545;52.092;7.006;2023-02-28T05:03:55;2.10;99.90
14908;DHT22;7545;52.092;7.006;2023-02-28T05:06:22;2.00;99.90
14908;DHT22;7545;52.092;7.006;2023-02-28T05:08:49;2.00;99.90
14908;DHT22;7545;52.092;7.006;2023-02-28T05:11:31;2.00;99.90
14908;DHT22;7545;52.092;7.006;2023-02-28T05:14:01;2.00;99.90
14908;DHT22;7545;52.092;7.006;2023-02-28T05:16:27;1.90;99.90
14908;DHT22;7545;52.092;7.006;2023-02-28T05:18:53;1.90;99.90
14908;DHT22;7545;52.092;7.006;2023-02-28T05:21:51;1.80;99.90
14908;DHT22;7545;52.092;7.006;2023-02-28T05:24:17;1.80;99.90
14908;DHT22;7545;52.092;7.006;2023-02-28T05:26:50;1.70;99.90
14908;DHT22;7545;52.092;7.006;2023-02-28T05:29:17;1.80;99.90
14908;DHT22;7545;52.092;7.006;2023-02-28T05:31:42;1.70;99.90
14908;DHT22;7545;52.092;7.006;2023-02-28T05:34:08;1.60;99.90
14908;DHT22;7545;52.092;7.006;2023-02-28T05:36:36;1.60;99.90
14908;DHT22;7545;52.092;7.006;2023-02-28T05:39:02;1.60;99.90
14908;DHT22;7545;52.092;7.006;2023-02-28T05:41:28;1.60;99.90
14908;DHT22;7545;52.092;7.006;2023-02-28T05:43:54;1.60;99.90
14908;DHT22;7545;52.092;7.006;2023-02-28T05:46:20;1.50;99.90
14908;DHT22;7545;52.092;7.006;2023-02-28T05:48:48;1.50;99.90
14908;DHT22;7545;52.092;7.006;2023-02-28T05:51:14;1.50;99.90
14908;DHT22;7545;52.092;7.006;2023-02-28T05:53:39;1.40;99.90
14908;DHT22;7545;52.092;7.006;2023-02-28T05:56:05;1.40;99.90
14908;DHT22;7545;52.092;7.006;2023-02-28T05:58:31;1.40;99.90
14908;DHT22;7545;52.092;7.006;2023-02-28T06:00:57;1.30;99.90
14908;DHT22;7545;52.092;7.006;2023-02-28T06:03:23;1.30;99.90
14908;DHT22;7545;52.092;7.006;2023-02-28T06:05:49;1.30;99.90
14908;DHT22;7545;52.092;7.006;2023-02-28T06:08:15;1.30;99.90
14908;DHT22;7545;52.092;7.006;2023-02-28T06:10:41;1.30;99.90
14908;DHT22;7545;52.092;7.006;2023-02-28T06:13:07;1.20;99.90
14908;DHT22;7545;52.092;7.006;2023-02-28T06:15:32;1.20;99.90
14908;DHT22;7545;52.092;7.006;2023-02-28T06:17:59;1.20;99.90
14908;DHT22;7545;52.092;7.006;2023-02-28T06:20:26;1.20;99.90
14908;DHT22;7545;52.092;7.006;2023-02-28T06:22:58;1.10;99.90
14908;DHT22;7545;52.092;7.006;2023-02-28T06:25:27;1.20;99.90
14908;DHT22;7545;52.092;7.006;2023-02-28T06:27:53;1.20;99.90
14908;DHT22;7545;52.092;7.006;2023-02-28T06:30:19;1.10;99.90
14908;DHT22;7545;52.092;7.006;2023-02-28T06:32:49;1.10;99.90
14908;DHT22;7545;52.092;7.006;2023-02-28T06:35:14;1.10;99.90
14908;DHT22;7545;52.092;7.006;2023-02-28T06:37:40;1.10;99.90
14908;DHT22;7545;52.092;7.006;2023-02-28T06:40:08;1.20;99.90
14908;DHT22;7545;52.092;7.006;2023-02-28T06:42:34;1.10;99.90
14908;DHT22;7545;52.092;7.006;2023-02-28T06:45:00;1.10;99.90
14908;DHT22;7545;52.092;7.006;2023-02-28T06:47:30;1.10;99.90
14908;DHT22;7545;52.092;7.006;2023-02-28T06:49:55;1.10;99.90
14908;DHT22;7545;52.092;7.006;2023-02-28T06:52:21;1.00;99.90
14908;DHT22;7545;52.092;7.006;2023-02-28T06:54:47;1.00;99.90
14908;DHT22;7545;52.092;7.006;2023-02-28T06:57:34;1.00;99.90
14908;DHT22;7545;52.092;7.006;2023-02-28T07:00:03;1.00;99.90
14908;DHT22;7545;52.092;7.006;2023-02-28T07:02:29;1.00;99.90
14908;DHT22;7545;52.092;7.006;2023-02-28T07:04:56;1.00;99.90
14908;DHT22;7545;52.092;7.006;2023-02-28T07:07:22;1.00;99.90
14908;DHT22;7545;52.092;7.006;2023-02-28T07:09:48;1.00;99.90
14908;DHT22;7545;52.092;7.006;2023-02-28T07:12:14;1.10;99.90
14908;DHT22;7545;52.092;7.006;2023-02-28T07:14:39;1.00;99.90
14908;DHT22;7545;52.092;7.006;2023-02-28T07:17:07;1.00;99.90
14908;DHT22;7545;52.092;7.006;2023-02-28T07:19:33;1.00;99.90
14908;DHT22;7545;52.092;7.006;2023-02-28T07:21:58;1.00;99.90
14908;DHT22;7545;52.092;7.006;2023-02-28T07:24:24;1.00;99.90
14908;DHT22;7545;52.092;7.006;2023-02-28T07:26:53;1.00;99.90
14908;DHT22;7545;52.092;7.006;2023-02-28T07:29:19;1.00;99.90
14908;DHT22;7545;52.092;7.006;2023-02-28T07:31:44;1.10;99.90
14908;DHT22;7545;52.092;7.006;2023-02-28T07:34:12;1.10;99.90
14908;DHT22;7545;52.092;7.006;2023-02-28T07:36:38;1.10;99.90
14908;DHT22;7545;52.092;7.006;2023-02-28T07:39:03;1.10;99.90
14908;DHT22;7545;52.092;7.006;2023-02-28T07:41:30;1.20;99.90
14908;DHT22;7545;52.092;7.006;2023-02-28T07:43:59;1.20;99.90
14908;DHT22;7545;52.092;7.006;2023-02-28T07:46:25;1.20;99.90
14908;DHT22;7545;52.092;7.006;2023-02-28T07:48:51;1.20;99.90
14908;DHT22;7545;52.092;7.006;2023-02-28T07:51:18;1.20;99.90
14908;DHT22;7545;52.092;7.006;2023-02-28T07:53:44;1.30;99.90
14908;DHT22;7545;52.092;7.006;2023-02-28T07:56:10;1.30;99.90
14908;DHT22;7545;52.092;7.006;2023-02-28T07:58:36;1.40;99.90
14908;DHT22;7545;52.092;7.006;2023-02-28T08:01:07;1.40;99.90
14908;DHT22;7545;52.092;7.006;2023-02-28T08:03:33;1.50;99.90
14908;DHT22;7545;52.092;7.006;2023-02-28T08:05:58;1.70;99.90
14908;DHT22;7545;52.092;7.006;2023-02-28T08:08:24;1.80;99.90
14908;DHT22;7545;52.092;7.006;2023-02-28T08:10:53;1.90;99.90
14908;DHT22;7545;52.092;7.006;2023-02-28T08:13:19;2.00;99.90
14908;DHT22;7545;52.092;7.006;2023-02-28T08:15:44;2.10;99.90
14908;DHT22;7545;52.092;7.006;2023-02-28T08:18:12;2.20;99.90
14908;DHT22;7545;52.092;7.006;2023-02-28T08:20:38;2.20;99.90
14908;DHT22;7545;52.092;7.006;2023-02-28T08:23:03;2.30;99.90
14908;DHT22;7545;52.092;7.006;2023-02-28T08:25:29;2.30;99.90
14908;DHT22;7545;52.092;7.006;2023-02-28T08:27:55;2.40;99.90
14908;DHT22;7545;52.092;7.006;2023-02-28T08:30:20;2.40;99.90
14908;DHT22;7545;52.092;7.006;2023-02-28T08:32:46;2.50;99.90
14908;DHT22;7545;52.092;7.006;2023-02-28T08:35:11;2.60;99.90
14908;DHT22;7545;52.092;7.006;2023-02-28T08:37:37;2.60;99.90
14908;DHT22;7545;52.092;7.006;2023-02-28T08:40:03;2.60;99.90
14908;DHT22;7545;52.092;7.006;2023-02-28T08:42:29;2.70;99.90
14908;DHT22;7545;52.092;7.006;2023-02-28T08:44:56;2.70;99.90
14908;DHT22;7545;52.092;7.006;2023-02-28T08:47:21;2.80;99.90
14908;DHT22;7545;52.092;7.006;2023-02-28T08:49:47;2.90;99.90
14908;DHT22;7545;52.092;7.006;2023-02-28T08:52:13;2.90;99.90
14908;DHT22;7545;52.092;7.006;2023-02-28T08:54:38;3.00;99.90
14908;DHT22;7545;52.092;7.006;2023-02-28T08:57:04;3.10;99.90
14908;DHT22;7545;52.092;7.006;2023-02-28T08:59:30;3.10;99.90
14908;DHT22;7545;52.092;7.006;2023-02-28T09:01:55;3.20;99.90
14908;DHT22;7545;52.092;7.006;2023-02-28T09:04:21;3.30;99.90
14908;DHT22;7545;52.092;7.006;2023-02-28T09:06:47;3.40;99.90
14908;DHT22;7545;52.092;7.006;2023-02-28T09:09:14;3.40;99.90
14908;DHT22;7545;52.092;7.006;2023-02-28T09:11:40;3.40;99.90
14908;DHT22;7545;52.092;7.006;2023-02-28T09:14:05;3.50;99.90
14908;DHT22;7545;52.092;7.006;2023-02-28T09:16:32;3.50;99.90
14908;DHT22;7545;52.092;7.006;2023-02-28T09:18:57;3.60;99.90
14908;DHT22;7545;52.092;7.006;2023-02-28T09:21:23;3.60;99.90
14908;DHT22;7545;52.092;7.006;2023-02-28T09:23:50;3.70;99.90
14908;DHT22;7545;52.092;7.006;2023-02-28T09:26:20;3.70;99.90
14908;DHT22;7545;52.092;7.006;2023-02-28T09:28:46;3.80;99.90
14908;DHT22;7545;52.092;7.006;2023-02-28T09:31:14;3.80;99.90
14908;DHT22;7545;52.092;7.006;2023-02-28T09:33:40;3.90;99.90
14908;DHT22;7545;52.092;7.006;2023-02-28T09:36:06;3.90;99.90
14908;DHT22;7545;52.092;7.006;2023-02-28T09:38:32;4.00;99.90
14908;DHT22;7545;52.092;7.006;2023-02-28T09:41:04;4.00;99.90
14908;DHT22;7545;52.092;7.006;2023-02-28T09:43:37;4.10;99.90
14908;DHT22;7545;52.092;7.006;2023-02-28T09:46:33;4.20;99.90
14908;DHT22;7545;52.092;7.006;2023-02-28T09:49:06;4.20;99.90
14908;DHT22;7545;52.092;7.006;2023-02-28T09:54:14;4.30;99.90
14908;DHT22;7545;52.092;7.006;2023-02-28T09:56:45;4.30;99.90
14908;DHT22;7545;52.092;7.006;2023-02-28T10:04:44;4.50;99.90
14908;DHT22;7545;52.092;7.006;2023-02-28T10:10:43;4.70;99.90
14908;DHT22;7545;52.092;7.006;2023-02-28T10:16:10;4.80;99.90
14908;DHT22;7545;52.092;7.006;2023-02-28T10:21:45;5.00;99.90
14908;DHT22;7545;52.092;7.006;2023-02-28T10:24:29;5.00;99.90
14908;DHT22;7545;52.092;7.006;2023-02-28T10:27:03;5.10;99.90
14908;DHT22;7545;52.092;7.006;2023-02-28T10:29:31;5.20;99.90
14908;DHT22;7545;52.092;7.006;2023-02-28T10:32:00;5.20;99.90
14908;DHT22;7545;52.092;7.006;2023-02-28T10:34:27;5.30;99.90
14908;DHT22;7545;52.092;7.006;2023-02-28T10:36:53;5.40;99.90
14908;DHT22;7545;52.092;7.006;2023-02-28T10:42:22;5.60;99.90
14908;DHT22;7545;52.092;7.006;2023-02-28T10:47:30;5.80;99.90
14908;DHT22;7545;52.092;7.006;2023-02-28T10:49:57;5.80;99.90
14908;DHT22;7545;52.092;7.006;2023-02-28T10:52:52;5.90;99.90
14908;DHT22;7545;52.092;7.006;2023-02-28T10:55:23;6.00;99.90
14908;DHT22;7545;52.092;7.006;2023-02-28T10:57:51;6.00;99.90
14908;DHT22;7545;52.092;7.006;2023-02-28T11:00:21;6.00;99.90
14908;DHT22;7545;52.092;7.006;2023-02-28T11:02:47;6.10;99.90
14908;DHT22;7545;52.092;7.006;2023-02-28T11:05:33;6.10;99.90
14908;DHT22;7545;52.092;7.006;2023-02-28T11:08:17;6.20;99.90
14908;DHT22;7545;52.092;7.006;2023-02-28T11:10:48;6.30;99.90
14908;DHT22;7545;52.092;7.006;2023-02-28T11:13:21;6.40;99.90
14908;DHT22;7545;52.092;7.006;2023-02-28T11:15:58;6.40;99.90
14908;DHT22;7545;52.092;7.006;2023-02-28T11:21:01;6.50;99.90
14908;DHT22;7545;52.092;7.006;2023-02-28T11:23:29;6.50;99.90
14908;DHT22;7545;52.092;7.006;2023-02-28T11:25:59;6.50;99.90
14908;DHT22;7545;52.092;7.006;2023-02-28T11:28:31;6.60;99.90
14908;DHT22;7545;52.092;7.006;2023-02-28T11:36:25;6.70;99.90
14908;DHT22;7545;52.092;7.006;2023-02-28T11:38:54;6.80;99.90
14908;DHT22;7545;52.092;7.006;2023-02-28T11:44:28;6.90;99.90
14908;DHT22;7545;52.092;7.006;2023-02-28T11:47:06;7.00;99.90
14908;DHT22;7545;52.092;7.006;2023-02-28T11:55:16;7.20;99.90
14908;DHT22;7545;52.092;7.006;2023-02-28T12:09:17;7.40;99.90
14908;DHT22;7545;52.092;7.006;2023-02-28T12:11:55;7.50;99.90
14908;DHT22;7545;52.092;7.006;2023-02-28T12:14:44;7.60;99.90
14908;DHT22;7545;52.092;7.006;2023-02-28T12:20:13;7.50;99.60
14908;DHT22;7545;52.092;7.006;2023-02-28T12:28:26;7.60;99.90
14908;DHT22;7545;52.092;7.006;2023-02-28T12:31:26;7.70;99.90
14908;DHT22;7545;52.092;7.006;2023-02-28T12:33:59;7.70;99.90
14908;DHT22;7545;52.092;7.006;2023-02-28T12:36:25;7.80;99.90
14908;DHT22;7545;52.092;7.006;2023-02-28T12:44:20;7.80;98.70
14908;DHT22;7545;52.092;7.006;2023-02-28T12:46:51;7.80;98.50
14908;DHT22;7545;52.092;7.006;2023-02-28T12:51:58;7.90;99.40
14908;DHT22;7545;52.092;7.006;2023-02-28T12:57:31;8.00;98.70
14908;DHT22;7545;52.092;7.006;2023-02-28T13:00:32;8.00;98.70
14908;DHT22;7545;52.092;7.006;2023-02-28T13:03:32;8.10;99.10
14908;DHT22;7545;52.092;7.006;2023-02-28T13:06:33;8.20;98.80
14908;DHT22;7545;52.092;7.006;2023-02-28T13:09:13;8.20;98.80
14908;DHT22;7545;52.092;7.006;2023-02-28T13:11:53;8.30;97.90
14908;DHT22;7545;52.092;7.006;2023-02-28T13:14:30;8.30;98.50
14908;DHT22;7545;52.092;7.006;2023-02-28T13:19:58;8.50;97.70
14908;DHT22;7545;52.092;7.006;2023-02-28T13:24:52;8.70;97.90
14908;DHT22;7545;52.092;7.006;2023-02-28T13:29:43;8.90;98.20
14908;DHT22;7545;52.092;7.006;2023-02-28T13:42:37;9.20;97.60
14908;DHT22;7545;52.092;7.006;2023-02-28T13:47:42;9.20;97.60
14908;DHT22;7545;52.092;7.006;2023-02-28T13:50:30;9.20;96.20
14908;DHT22;7545;52.092;7.006;2023-02-28T13:56:09;9.10;95.90
14908;DHT22;7545;52.092;7.006;2023-02-28T14:07:32;8.90;95.70
14908;DHT22;7545;52.092;7.006;2023-02-28T14:10:05;9.00;96.20
14908;DHT22;7545;52.092;7.006;2023-02-28T14:12:57;9.10;96.60
14908;DHT22;7545;52.092;7.006;2023-02-28T14:15:38;9.10;96.40
14908;DHT22;7545;52.092;7.006;2023-02-28T14:20:42;9.10;95.60
14908;DHT22;7545;52.092;7.006;2023-02-28T14:32:30;8.80;95.40
14908;DHT22;7545;52.092;7.006;2023-02-28T14:37:42;8.80;95.40
14908;DHT22;7545;52.092;7.006;2023-02-28T14:40:19;8.70;94.90
14908;DHT22;7545;52.092;7.006;2023-02-28T14:42:49;8.70;94.90
14908;DHT22;7545;52.092;7.006;2023-02-28T14:45:20;8.70;95.40
14908;DHT22;7545;52.092;7.006;2023-02-28T14:47:47;8.70;95.60
14908;DHT22;7545;52.092;7.006;2023-02-28T14:50:22;8.80;95.70
14908;DHT22;7545;52.092;7.006;2023-02-28T14:52:52;8.70;94.90
14908;DHT22;7545;52.092;7.006;2023-02-28T14:55:19;8.70;95.70
14908;DHT22;7545;52.092;7.006;2023-02-28T14:57:53;8.70;96.00
14908;DHT22;7545;52.092;7.006;2023-02-28T15:00:23;8.70;96.90
14908;DHT22;7545;52.092;7.006;2023-02-28T15:02:49;8.70;95.70
14908;DHT22;7545;52.092;7.006;2023-02-28T15:05:26;8.70;96.30
14908;DHT22;7545;52.092;7.006;2023-02-28T15:08:12;8.70;96.00
14908;DHT22;7545;52.092;7.006;2023-02-28T15:10:42;8.70;96.30
14908;DHT22;7545;52.092;7.006;2023-02-28T15:13:12;8.70;96.40
14908;DHT22;7545;52.092;7.006;2023-02-28T15:15:55;8.70;96.30
14908;DHT22;7545;52.092;7.006;2023-02-28T15:21:13;8.60;95.30
14908;DHT22;7545;52.092;7.006;2023-02-28T15:23:43;8.60;95.80
14908;DHT22;7545;52.092;7.006;2023-02-28T15:26:22;8.50;95.40
14908;DHT22;7545;52.092;7.006;2023-02-28T15:28:54;8.50;95.80
14908;DHT22;7545;52.092;7.006;2023-02-28T15:31:32;8.50;95.90
14908;DHT22;7545;52.092;7.006;2023-02-28T15:34:03;8.40;95.40
14908;DHT22;7545;52.092;7.006;2023-02-28T15:36:31;8.40;95.90
14908;DHT22;7545;52.092;7.006;2023-02-28T15:38:59;8.40;96.70
14908;DHT22;7545;52.092;7.006;2023-02-28T15:41:30;8.40;97.10
14908;DHT22;7545;52.092;7.006;2023-02-28T15:46:58;8.40;96.30
14908;DHT22;7545;52.092;7.006;2023-02-28T15:49:25;8.30;96.20
14908;DHT22;7545;52.092;7.006;2023-02-28T15:51:53;8.30;96.40
14908;DHT22;7545;52.092;7.006;2023-02-28T15:54:23;8.20;96.40
14908;DHT22;7545;52.092;7.006;2023-02-28T15:56:55;8.20;96.90
14908;DHT22;7545;52.092;7.006;2023-02-28T15:59:27;8.30;97.30
14908;DHT22;7545;52.092;7.006;2023-02-28T16:02:29;8.20;96.70
14908;DHT22;7545;52.092;7.006;2023-02-28T16:07:37;8.10;97.40
14908;DHT22;7545;52.092;7.006;2023-02-28T16:10:04;8.10;97.20
14908;DHT22;7545;52.092;7.006;2023-02-28T16:12:32;8.10;97.40
14908;DHT22;7545;52.092;7.006;2023-02-28T16:15:05;8.00;97.50
14908;DHT22;7545;52.092;7.006;2023-02-28T16:17:35;8.00;97.50
14908;DHT22;7545;52.092;7.006;2023-02-28T16:20:15;8.00;97.50
14908;DHT22;7545;52.092;7.006;2023-02-28T16:22:42;8.00;97.70
14908;DHT22;7545;52.092;7.006;2023-02-28T16:25:15;7.90;97.90
14908;DHT22;7545;52.092;7.006;2023-02-28T16:27:42;7.80;98.00
14908;DHT22;7545;52.092;7.006;2023-02-28T16:30:33;7.70;98.20
14908;DHT22;7545;52.092;7.006;2023-02-28T16:32:59;7.60;98.50
14908;DHT22;7545;52.092;7.006;2023-02-28T16:35:25;7.40;99.00
14908;DHT22;7545;52.092;7.006;2023-02-28T16:37:51;7.40;99.20
14908;DHT22;7545;52.092;7.006;2023-02-28T16:40:23;7.30;99.20
14908;DHT22;7545;52.092;7.006;2023-02-28T16:42:50;7.20;99.10
14908;DHT22;7545;52.092;7.006;2023-02-28T16:45:19;7.10;99.40
14908;DHT22;7545;52.092;7.006;2023-02-28T16:47:46;7.00;99.60
14908;DHT22;7545;52.092;7.006;2023-02-28T16:50:23;6.90;99.90
14908;DHT22;7545;52.092;7.006;2023-02-28T16:52:49;6.90;99.70
14908;DHT22;7545;52.092;7.006;2023-02-28T16:55:17;6.80;99.90
14908;DHT22;7545;52.092;7.006;2023-02-28T16:57:44;6.70;99.90
14908;DHT22;7545;52.092;7.006;2023-02-28T17:00:12;6.70;99.90
14908;DHT22;7545;52.092;7.006;2023-02-28T17:02:39;6.60;99.90
14908;DHT22;7545;52.092;7.006;2023-02-28T17:05:05;6.50;99.90
14908;DHT22;7545;52.092;7.006;2023-02-28T17:07:32;6.40;99.90
14908;DHT22;7545;52.092;7.006;2023-02-28T17:09:57;6.40;99.90
14908;DHT22;7545;52.092;7.006;2023-02-28T17:12:23;6.40;99.90
14908;DHT22;7545;52.092;7.006;2023-02-28T17:14:49;6.30;99.90
14908;DHT22;7545;52.092;7.006;2023-02-28T17:17:20;6.30;99.90
14908;DHT22;7545;52.092;7.006;2023-02-28T17:19:47;6.30;99.90
14908;DHT22;7545;52.092;7.006;2023-02-28T17:22:13;6.20;99.90
14908;DHT22;7545;52.092;7.006;2023-02-28T17:24:38;6.20;99.90
14908;DHT22;7545;52.092;7.006;2023-02-28T17:27:04;6.10;99.90
14908;DHT22;7545;52.092;7.006;2023-02-28T17:29:30;6.10;99.90
14908;DHT22;7545;52.092;7.006;2023-02-28T17:31:56;6.00;99.90
14908;DHT22;7545;52.092;7.006;2023-02-28T17:34:22;5.90;99.90
14908;DHT22;7545;52.092;7.006;2023-02-28T17:36:49;5.80;99.90
14908;DHT22;7545;52.092;7.006;2023-02-28T17:39:17;5.80;99.90
14908;DHT22;7545;52.092;7.006;2023-02-28T17:41:52;5.80;99.90
14908;DHT22;7545;52.092;7.006;2023-02-28T17:44:19;5.70;99.90
14908;DHT22;7545;52.092;7.006;2023-02-28T17:46:45;5.70;99.90
14908;DHT22;7545;52.092;7.006;2023-02-28T17:49:11;5.60;99.90
14908;DHT22;7545;52.092;7.006;2023-02-28T17:51:37;5.50;99.90
14908;DHT22;7545;52.092;7.006;2023-02-28T17:54:03;5.50;99.90
14908;DHT22;7545;52.092;7.006;2023-02-28T17:56:28;5.40;99.90
14908;DHT22;7545;52.092;7.006;2023-02-28T17:58:55;5.30;99.90
14908;DHT22;7545;52.092;7.006;2023-02-28T18:01:22;5.30;99.90
14908;DHT22;7545;52.092;7.006;2023-02-28T18:03:49;5.20;99.90
14908;DHT22;7545;52.092;7.006;2023-02-28T18:06:24;5.20;99.90
14908;DHT22;7545;52.092;7.006;2023-02-28T18:08:51;5.10;99.90
14908;DHT22;7545;52.092;7.006;2023-02-28T18:11:18;5.10;99.90
14908;DHT22;7545;52.092;7.006;2023-02-28T18:13:48;5.10;99.90
14908;DHT22;7545;52.092;7.006;2023-02-28T18:16:15;5.10;99.90
14908;DHT22;7545;52.092;7.006;2023-02-28T18:18:41;5.00;99.90
14908;DHT22;7545;52.092;7.006;2023-02-28T18:21:08;5.00;99.90
14908;DHT22;7545;52.092;7.006;2023-02-28T18:23:35;5.00;99.90
14908;DHT22;7545;52.092;7.006;2023-02-28T18:26:00;4.90;99.90
14908;DHT22;7545;52.092;7.006;2023-02-28T18:28:26;5.00;99.90
14908;DHT22;7545;52.092;7.006;2023-02-28T18:30:52;4.90;99.90
14908;DHT22;7545;52.092;7.006;2023-02-28T18:33:18;4.90;99.90
14908;DHT22;7545;52.092;7.006;2023-02-28T18:35:44;4.80;99.90
14908;DHT22;7545;52.092;7.006;2023-02-28T18:38:13;4.80;99.90
14908;DHT22;7545;52.092;7.006;2023-02-28T18:40:40;4.80;99.90
14908;DHT22;7545;52.092;7.006;2023-02-28T18:43:07;4.80;99.90
14908;DHT22;7545;52.092;7.006;2023-02-28T18:45:36;4.80;99.90
14908;DHT22;7545;52.092;7.006;2023-02-28T18:48:02;4.80;99.90
14908;DHT22;7545;52.092;7.006;2023-02-28T18:50:28;4.80;99.90
14908;DHT22;7545;52.092;7.006;2023-02-28T18:52:54;4.80;99.90
14908;DHT22;7545;52.092;7.006;2023-02-28T18:55:19;4.70;99.90
14908;DHT22;7545;52.092;7.006;2023-02-28T18:57:46;4.70;99.90
14908;DHT22;7545;52.092;7.006;2023-02-28T19:00:13;4.80;99.90
14908;DHT22;7545;52.092;7.006;2023-02-28T19:02:38;4.80;99.90